createdAt,value
2019-03-13T00:01:23.543Z,4.80
2019-03-13T00:03:52.869Z,4.80
2019-03-13T00:06:23.187Z,4.70
2019-03-13T00:08:53.518Z,4.70
2019-03-13T00:11:24.040Z,4.70
2019-03-13T00:13:54.366Z,4.70
2019-03-13T00:16:24.894Z,4.70
2019-03-13T00:18:55.242Z,4.70
2019-03-13T00:21:25.319Z,4.70
2019-03-13T00:23:55.733Z,4.70
2019-03-13T00:26:25.913Z,4.70
2019-03-13T00:28:56.108Z,4.70
2019-03-13T00:31:26.426Z,4.70
2019-03-13T00:33:56.522Z,4.70
2019-03-13T00:36:26.847Z,4.70
2019-03-13T00:38:57.197Z,4.70
2019-03-13T00:41:27.517Z,4.70
2019-03-13T00:43:57.841Z,4.70
2019-03-13T00:46:28.303Z,4.60
2019-03-13T00:48:58.490Z,4.60
2019-03-13T00:51:28.714Z,4.60
2019-03-13T00:53:59.035Z,4.60
2019-03-13T00:56:29.360Z,4.60
2019-03-13T00:58:59.683Z,4.60
2019-03-13T01:01:31.451Z,4.60
2019-03-13T01:04:03.405Z,4.60
2019-03-13T01:06:35.163Z,4.60
2019-03-13T01:09:07.327Z,4.60
2019-03-13T01:11:37.663Z,4.60
2019-03-13T01:14:08.159Z,4.60
2019-03-13T01:16:38.511Z,4.60
2019-03-13T01:19:09.033Z,4.60
2019-03-13T01:21:39.360Z,4.60
2019-03-13T01:24:09.579Z,4.60
2019-03-13T01:26:40.726Z,4.60
2019-03-13T01:29:11.048Z,4.60
2019-03-13T01:31:51.486Z,4.60
2019-03-13T01:34:23.473Z,4.60
2019-03-13T01:36:53.793Z,4.60
2019-03-13T01:39:24.327Z,4.60
2019-03-13T01:41:54.649Z,4.60
2019-03-13T01:44:24.971Z,4.70
2019-03-13T01:46:55.295Z,4.70
2019-03-13T01:49:25.622Z,4.70
2019-03-13T01:51:55.991Z,4.70
2019-03-13T01:54:26.268Z,4.70
2019-03-13T01:56:56.901Z,4.70
2019-03-13T01:59:26.978Z,4.70
2019-03-13T02:01:57.342Z,4.60
2019-03-13T02:04:27.752Z,4.70
2019-03-13T02:06:58.195Z,4.60
2019-03-13T02:09:28.659Z,4.60
2019-03-13T02:11:59.071Z,4.60
2019-03-13T02:14:29.780Z,4.60
2019-03-13T02:17:00.107Z,4.60
2019-03-13T02:19:30.428Z,4.50
2019-03-13T02:22:00.761Z,4.50
2019-03-13T02:24:31.487Z,4.50
2019-03-13T02:27:01.811Z,4.50
2019-03-13T02:29:32.138Z,4.50
2019-03-13T02:32:02.461Z,4.50
2019-03-13T02:34:32.788Z,4.50
2019-03-13T02:37:03.317Z,4.50
2019-03-13T02:39:33.637Z,4.50
2019-03-13T02:42:03.963Z,4.50
2019-03-13T02:44:34.289Z,4.50
2019-03-13T02:47:04.611Z,4.50
2019-03-13T02:49:34.935Z,4.40
2019-03-13T02:52:05.273Z,4.40
2019-03-13T02:54:35.790Z,4.40
2019-03-13T02:57:05.928Z,4.40
2019-03-13T02:59:36.232Z,4.40
2019-03-13T03:02:08.241Z,4.40
2019-03-13T03:04:38.725Z,4.40
2019-03-13T03:07:12.655Z,4.40
2019-03-13T03:09:40.802Z,4.40
2019-03-13T03:12:11.133Z,4.50
2019-03-13T03:14:44.118Z,4.50
2019-03-13T03:17:14.333Z,4.50
2019-03-13T03:19:44.492Z,4.50
2019-03-13T03:22:14.982Z,4.50
2019-03-13T03:24:45.304Z,4.50
2019-03-13T03:27:15.631Z,4.50
2019-03-13T03:29:45.881Z,4.50
2019-03-13T03:32:16.075Z,4.50
2019-03-13T03:34:46.409Z,4.50
2019-03-13T03:37:16.723Z,4.50
2019-03-13T03:39:48.069Z,4.50
2019-03-13T03:42:18.496Z,4.50
2019-03-13T03:44:48.826Z,4.50
2019-03-13T03:47:19.148Z,4.50
2019-03-13T03:49:49.472Z,4.50
2019-03-13T03:52:19.792Z,4.50
2019-03-13T03:54:53.189Z,4.50
2019-03-13T03:57:23.287Z,4.50
2019-03-13T03:59:53.630Z,4.50
2019-03-13T04:02:23.785Z,4.50
2019-03-13T04:04:54.278Z,4.50
2019-03-13T04:07:24.810Z,4.50
2019-03-13T04:09:55.131Z,4.50
2019-03-13T04:12:26.297Z,4.50
2019-03-13T04:14:56.601Z,4.50
2019-03-13T04:17:27.032Z,4.50
2019-03-13T04:19:57.347Z,4.50
2019-03-13T04:22:27.574Z,4.50
2019-03-13T04:25:00.694Z,4.50
2019-03-13T04:27:31.089Z,4.50
2019-03-13T04:30:01.629Z,4.50
2019-03-13T04:32:31.844Z,4.50
2019-03-13T04:35:02.369Z,4.60
2019-03-13T04:37:32.586Z,4.60
2019-03-13T04:40:02.808Z,4.60
2019-03-13T04:42:33.236Z,4.60
2019-03-13T04:45:03.562Z,4.60
2019-03-13T04:47:33.884Z,4.50
2019-03-13T04:50:06.041Z,4.60
2019-03-13T04:52:36.582Z,4.60
2019-03-13T04:55:09.080Z,4.60
2019-03-13T04:57:39.276Z,4.60
2019-03-13T05:00:12.877Z,4.50
2019-03-13T05:02:43.202Z,4.60
2019-03-13T05:05:37.227Z,4.60
2019-03-13T05:08:07.706Z,4.60
2019-03-13T05:10:38.236Z,4.60
2019-03-13T05:13:08.710Z,4.60
2019-03-13T05:15:39.299Z,4.60
2019-03-13T05:18:09.618Z,4.60
2019-03-13T05:20:39.944Z,4.60
2019-03-13T05:23:10.287Z,4.60
2019-03-13T05:25:41.919Z,4.60
2019-03-13T05:28:12.144Z,4.50
2019-03-13T05:30:42.466Z,4.60
2019-03-13T05:33:12.797Z,4.60
2019-03-13T05:35:43.013Z,4.60
2019-03-13T05:38:13.151Z,4.60
2019-03-13T05:40:43.232Z,4.60
2019-03-13T05:43:13.472Z,4.60
2019-03-13T05:45:52.906Z,4.60
2019-03-13T05:48:23.234Z,4.60
2019-03-13T05:50:53.665Z,4.60
2019-03-13T05:53:24.087Z,4.60
2019-03-13T05:55:54.690Z,4.60
2019-03-13T05:58:24.937Z,4.60
2019-03-13T06:00:55.261Z,4.60
2019-03-13T06:03:25.483Z,4.60
2019-03-13T06:05:55.809Z,4.60
2019-03-13T06:08:26.155Z,4.60
2019-03-13T06:10:56.458Z,4.60
2019-03-13T06:13:26.984Z,4.60
2019-03-13T06:15:57.308Z,4.60
2019-03-13T06:18:27.534Z,4.60
2019-03-13T06:20:57.854Z,4.60
2019-03-13T06:23:28.179Z,4.60
2019-03-13T06:25:58.405Z,4.60
2019-03-13T06:28:28.827Z,4.60
2019-03-13T06:30:59.158Z,4.60
2019-03-13T06:33:29.369Z,4.60
2019-03-13T06:36:01.132Z,4.60
2019-03-13T06:38:32.741Z,4.50
2019-03-13T06:41:05.193Z,4.60
2019-03-13T06:43:34.584Z,4.60
2019-03-13T06:46:04.988Z,4.60
2019-03-13T06:48:35.209Z,4.60
2019-03-13T06:51:05.735Z,4.60
2019-03-13T06:53:36.066Z,4.60
2019-03-13T06:56:06.392Z,4.60
2019-03-13T06:58:38.142Z,4.60
2019-03-13T07:01:16.043Z,4.60
2019-03-13T07:03:47.802Z,4.60
2019-03-13T07:06:22.632Z,4.60
2019-03-13T07:09:06.478Z,4.60
2019-03-13T07:11:38.439Z,4.60
2019-03-13T07:14:12.860Z,4.60
2019-03-13T07:16:50.758Z,4.60
2019-03-13T07:19:22.408Z,4.60
2019-03-13T07:22:00.416Z,4.60
2019-03-13T07:24:37.700Z,4.70
2019-03-13T07:27:25.458Z,4.60
2019-03-13T07:29:57.383Z,4.70
2019-03-13T07:32:44.522Z,4.70
2019-03-13T07:35:19.772Z,4.70
2019-03-13T07:37:54.379Z,4.70
2019-03-13T07:40:29.207Z,4.70
2019-03-13T07:43:10.384Z,4.70
2019-03-13T07:45:42.111Z,4.70
2019-03-13T07:48:22.808Z,4.70
2019-03-13T07:50:57.432Z,4.70
2019-03-13T07:53:45.784Z,4.70
2019-03-13T07:56:26.448Z,4.80
2019-03-13T07:58:58.325Z,4.80
2019-03-13T08:01:30.171Z,4.80
2019-03-13T08:04:11.141Z,4.80
2019-03-13T08:06:43.104Z,4.80
2019-03-13T08:09:20.802Z,4.80
2019-03-13T19:13:36.375Z,7.80
2019-03-13T19:16:06.645Z,9.90
2019-03-13T19:18:37.232Z,7.50
2019-03-13T19:21:07.885Z,6.50
2019-03-13T19:23:38.981Z,6.20
2019-03-13T19:26:12.147Z,6.10
2019-03-13T19:28:46.928Z,6.10
2019-03-13T19:31:19.330Z,6.10
2019-03-13T19:33:50.460Z,6.10
2019-03-13T19:36:21.112Z,6.10
2019-03-13T19:38:52.914Z,6.10
2019-03-13T19:41:23.190Z,6.10
2019-03-13T19:43:53.652Z,6.10
2019-03-13T19:46:24.366Z,6.10
2019-03-13T19:48:56.402Z,6.10
2019-03-13T19:51:35.253Z,6.10
2019-03-13T19:54:06.568Z,6.10
2019-03-13T19:56:37.531Z,6.10
2019-03-13T19:59:09.067Z,6.10
2019-03-13T20:01:43.097Z,6.10
2019-03-13T20:04:14.993Z,6.10
2019-03-13T20:06:47.930Z,6.10
2019-03-13T20:09:21.842Z,6.00
2019-03-13T20:11:52.191Z,6.00
2019-03-13T20:14:22.489Z,6.00
2019-03-13T20:16:52.813Z,6.10
2019-03-13T20:19:23.399Z,6.00
2019-03-13T20:21:53.716Z,6.00
2019-03-13T20:24:29.217Z,6.00
2019-03-13T20:27:00.137Z,6.00
2019-03-13T20:29:30.474Z,6.00
2019-03-13T20:32:01.272Z,6.00
2019-03-13T20:34:31.607Z,6.00
2019-03-13T20:37:02.066Z,6.00
2019-03-13T20:39:34.001Z,6.00
2019-03-13T20:42:04.588Z,6.00
2019-03-13T20:44:35.266Z,6.00
2019-03-13T20:47:05.817Z,6.00
2019-03-13T20:49:35.975Z,6.00
2019-03-13T20:52:06.566Z,6.00
2019-03-13T20:54:36.890Z,6.00
2019-03-13T20:57:07.217Z,6.00
2019-03-13T20:59:37.541Z,6.00
2019-03-13T21:02:08.067Z,6.00
2019-03-13T21:04:39.148Z,6.00
2019-03-13T21:07:09.657Z,5.90
2019-03-13T21:09:39.868Z,6.00
2019-03-13T21:12:09.981Z,5.90
2019-03-13T21:14:40.402Z,5.90
2019-03-13T21:17:10.727Z,5.90
2019-03-13T21:19:41.257Z,5.90
2019-03-13T21:22:11.580Z,5.90
2019-03-13T21:24:42.034Z,5.90
2019-03-13T21:27:12.599Z,5.90
2019-03-13T21:29:42.859Z,5.90
2019-03-13T21:32:13.191Z,5.90
2019-03-13T21:34:43.513Z,5.90
2019-03-13T21:37:13.935Z,5.90
2019-03-13T21:39:44.155Z,5.90
2019-03-13T21:42:16.125Z,5.90
2019-03-13T21:44:46.443Z,5.90
2019-03-13T21:47:16.780Z,5.90
2019-03-13T21:49:46.988Z,5.90
2019-03-13T21:52:17.413Z,5.90
2019-03-13T21:54:47.738Z,5.90
2019-03-13T21:57:17.856Z,5.80
2019-03-13T21:59:48.389Z,5.80
2019-03-13T22:02:18.712Z,5.80
2019-03-13T22:04:49.034Z,5.80
2019-03-13T22:07:19.396Z,5.80
2019-03-13T22:09:50.095Z,5.80
2019-03-13T22:12:20.415Z,5.80
2019-03-13T22:14:50.671Z,5.80
2019-03-13T22:17:21.067Z,5.80
2019-03-13T22:19:51.292Z,5.80
2019-03-13T22:22:21.412Z,5.80
2019-03-13T22:24:51.489Z,5.80
2019-03-13T22:27:21.745Z,5.80
2019-03-13T22:29:52.278Z,5.80
2019-03-13T22:32:22.598Z,5.80
2019-03-13T22:34:52.922Z,5.80
2019-03-13T22:37:23.251Z,5.80
2019-03-13T22:39:53.577Z,5.80
2019-03-13T22:42:23.720Z,5.80
2019-03-13T22:44:53.839Z,5.80
2019-03-13T22:47:23.936Z,5.80
2019-03-13T22:49:54.168Z,5.80
2019-03-13T22:52:24.371Z,5.80
2019-03-13T22:54:54.693Z,5.70
2019-03-13T22:57:25.224Z,5.70
2019-03-13T22:59:55.752Z,5.70
2019-03-13T23:02:26.083Z,5.70
2019-03-13T23:04:56.607Z,5.70
2019-03-13T23:07:27.237Z,5.70
2019-03-13T23:09:57.381Z,5.70
2019-03-13T23:12:30.281Z,5.70
2019-03-13T23:14:59.640Z,5.70
2019-03-13T23:17:29.965Z,5.70
2019-03-13T23:20:00.373Z,5.70
2019-03-13T23:22:30.844Z,5.70
2019-03-13T23:25:01.544Z,5.70
2019-03-13T23:27:31.711Z,5.60
2019-03-13T23:30:01.943Z,5.60
2019-03-13T23:32:32.055Z,5.60
2019-03-13T23:35:04.166Z,5.60
2019-03-13T23:37:37.033Z,5.60
2019-03-13T23:40:08.005Z,5.60
2019-03-13T23:42:38.608Z,5.60
2019-03-13T23:45:10.905Z,5.60
2019-03-13T23:47:41.225Z,5.60
2019-03-13T23:50:13.393Z,5.60
2019-03-13T23:52:43.539Z,5.60
2019-03-13T23:55:13.836Z,5.60
2019-03-13T23:57:44.080Z,5.60
